createdAt,value
2019-06-25T00:00:59.503Z,4.7
2019-06-25T00:01:59.498Z,5.5
2019-06-25T00:02:59.500Z,5.7
2019-06-25T00:04:00.022Z,4.5
2019-06-25T00:04:59.544Z,4.6
2019-06-25T00:05:59.626Z,4.6
2019-06-25T00:06:59.675Z,4.9
2019-06-25T00:07:59.671Z,4.7
2019-06-25T00:08:59.737Z,5.1
2019-06-25T00:09:59.797Z,6.8
2019-06-25T00:10:59.856Z,4.4
2019-06-25T00:15:00.154Z,5.2
2019-06-25T00:16:00.233Z,4.4
2019-06-25T00:17:00.358Z,4.7
2019-06-25T00:19:55.803Z,4.7
2019-06-25T00:20:55.793Z,5.2
2019-06-25T00:21:55.803Z,5.8
2019-06-25T00:24:55.780Z,4.8
2019-06-25T00:25:55.943Z,5.5
2019-06-25T00:26:55.940Z,5
2019-06-25T00:27:55.908Z,5.3
2019-06-25T00:28:56.079Z,7
2019-06-25T00:29:56.594Z,6.7
2019-06-25T00:30:56.168Z,6.1
2019-06-25T00:31:56.364Z,4.5
2019-06-25T00:34:56.470Z,5.7
2019-06-25T00:35:56.484Z,6.7
2019-06-25T00:36:56.518Z,6
2019-06-25T00:37:56.508Z,4.3
2019-06-25T00:38:56.511Z,4.5
2019-06-25T00:39:56.626Z,5.3
2019-06-25T00:40:56.766Z,4.7
2019-06-25T00:41:56.977Z,6.4
2019-06-25T00:44:57.191Z,5.1
2019-06-25T00:45:58.072Z,5.5
2019-06-25T00:46:57.518Z,4.4
2019-06-25T00:47:57.559Z,5.4
2019-06-25T00:48:57.564Z,6.1
2019-06-25T00:49:57.530Z,7.5
2019-06-25T00:50:57.686Z,5.9
2019-06-25T00:51:57.854Z,4.7
2019-06-25T00:54:57.902Z,6.9
2019-06-25T00:55:57.946Z,5.9
2019-06-25T00:56:57.981Z,7.2
2019-06-25T00:57:58.048Z,5.2
2019-06-25T00:58:58.075Z,7.5
2019-06-25T01:00:11.852Z,5.7
2019-06-25T01:00:59.216Z,7
2019-06-25T01:01:58.222Z,5.1
2019-06-25T01:04:58.227Z,6.6
2019-06-25T01:05:58.390Z,5.3
2019-06-25T01:06:58.444Z,5.3
2019-06-25T01:07:58.471Z,6.6
2019-06-25T01:08:58.470Z,5.6
2019-06-25T01:09:58.474Z,6.5
2019-06-25T01:10:58.472Z,4.7
2019-06-25T01:11:58.489Z,5.3
2019-06-25T01:14:58.602Z,5.5
2019-06-25T01:15:58.607Z,7.4
2019-06-25T01:16:58.596Z,5.1
2019-06-25T01:17:58.614Z,4.4
2019-06-25T01:18:58.640Z,6.5
2019-06-25T01:19:58.612Z,5
2019-06-25T01:20:58.742Z,4.2
2019-06-25T01:21:58.893Z,6.9
2019-06-25T01:24:59.078Z,5.4
2019-06-25T01:25:59.060Z,5.2
2019-06-25T01:26:59.246Z,5.1
2019-06-25T01:27:59.242Z,7.6
2019-06-25T01:28:59.283Z,7.4
2019-06-25T01:29:59.383Z,7
2019-06-25T01:30:59.374Z,8.1
2019-06-25T01:31:59.538Z,6.9
2019-06-25T01:34:59.585Z,4.9
2019-06-25T01:35:59.619Z,4.8
2019-06-25T01:36:59.613Z,7.6
2019-06-25T01:37:59.620Z,4.6
2019-06-25T01:38:59.645Z,6.7
2019-06-25T01:39:59.633Z,7.8
2019-06-25T01:40:59.642Z,5.4
2019-06-25T01:41:59.638Z,6.5
2019-06-25T01:44:59.713Z,3.8
2019-06-25T01:45:59.690Z,5.7
2019-06-25T01:46:59.846Z,4.1
2019-06-25T01:48:00.036Z,3.8
2019-06-25T01:49:00.083Z,5.5
2019-06-25T01:50:00.166Z,6.7
2019-06-25T01:51:00.183Z,4.2
2019-06-25T01:52:00.193Z,6.1
2019-06-25T01:55:00.272Z,5.1
2019-06-25T01:56:00.249Z,5.2
2019-06-25T01:57:00.404Z,6.1
2019-06-25T01:58:00.410Z,4.8
2019-06-25T01:59:00.457Z,5.7
2019-06-25T02:00:00.477Z,3.7
2019-06-25T02:01:00.473Z,7.4
2019-06-25T02:02:00.634Z,3.7
2019-06-25T02:05:00.946Z,4.3
2019-06-25T02:06:00.760Z,3.9
2019-06-25T02:07:00.923Z,5.8
2019-06-25T02:08:01.081Z,3.6
2019-06-25T02:09:01.072Z,4.7
2019-06-25T02:10:01.246Z,7.6
2019-06-25T02:11:01.212Z,6.2
2019-06-25T02:12:01.353Z,4
2019-06-25T02:15:01.802Z,5.1
2019-06-25T02:16:02.763Z,5.2
2019-06-25T02:17:01.892Z,5.3
2019-06-25T02:18:02.033Z,6.2
2019-06-25T02:19:02.160Z,4.1
2019-06-25T02:20:02.316Z,6.2
2019-06-25T02:21:02.417Z,5.6
2019-06-25T02:22:02.411Z,5.3
2019-06-25T02:23:02.429Z,3.8
2019-06-25T02:24:02.392Z,7.1
2019-06-25T02:25:02.780Z,5.1
2019-06-25T02:26:02.517Z,5
2019-06-25T02:27:02.612Z,4.2
2019-06-25T02:28:02.674Z,5.2
2019-06-25T02:29:02.737Z,5
2019-06-25T02:30:02.749Z,4.4
2019-06-25T02:31:07.846Z,5.7
2019-06-25T02:35:03.052Z,4
2019-06-25T02:36:03.180Z,4.4
2019-06-25T02:37:03.255Z,4.5
2019-06-25T02:38:03.327Z,5.1
2019-06-25T02:39:03.433Z,3.7
2019-06-25T02:40:03.518Z,5.7
2019-06-25T02:41:03.617Z,7.9
2019-06-25T02:42:03.702Z,7.6
2019-06-25T02:43:03.766Z,5.3
2019-06-25T02:44:03.847Z,7.9
2019-06-25T02:45:03.943Z,6.3
2019-06-25T02:46:04.014Z,5.9
2019-06-25T02:47:04.085Z,3.7
2019-06-25T02:55:04.867Z,5.2
2019-06-25T02:56:04.977Z,6.7
2019-06-25T02:57:05.045Z,4.6
2019-06-25T02:58:05.107Z,5.7
2019-06-25T02:59:05.189Z,7.2
2019-06-25T03:00:10.182Z,4.9
2019-06-25T03:01:22.423Z,3.8
2019-06-25T03:03:05.742Z,4.1
2019-06-25T03:04:05.650Z,5.8
2019-06-25T03:05:05.709Z,6.3
2019-06-25T03:06:05.862Z,5.5
2019-06-25T03:07:05.944Z,4
2019-06-25T03:08:06.013Z,4.4
2019-06-25T03:09:06.124Z,4.8
2019-06-25T03:10:06.220Z,4.7
2019-06-25T03:11:06.343Z,4.5
2019-06-25T03:15:06.675Z,5.2
2019-06-25T03:16:06.746Z,4.6
2019-06-25T03:17:06.872Z,6.6
2019-06-25T03:18:06.961Z,3.5
2019-06-25T03:19:07.272Z,3.8
2019-06-25T03:20:07.210Z,5.2
2019-06-25T03:21:07.332Z,4.2
2019-06-25T03:24:07.637Z,6.3
2019-06-25T03:25:07.715Z,4.5
2019-06-25T03:26:08.549Z,4.5
2019-06-25T03:27:07.831Z,6.2
2019-06-25T03:28:07.906Z,5.4
2019-06-25T03:29:07.985Z,4
2019-06-25T03:30:08.113Z,4
2019-06-25T03:31:08.206Z,4.8
2019-06-25T03:36:08.666Z,4.1
2019-06-25T03:37:08.787Z,4.6
2019-06-25T03:38:08.897Z,4.6
2019-06-25T03:39:09.767Z,6.1
2019-06-25T03:40:10.042Z,4.7
2019-06-25T03:41:09.153Z,4.4
2019-06-25T03:42:09.285Z,4.7
2019-06-25T03:43:09.402Z,5
2019-06-25T03:44:09.505Z,4.8
2019-06-25T03:45:09.655Z,5.1
2019-06-25T03:46:09.792Z,4.8
2019-06-25T03:47:09.975Z,5.3
2019-06-25T03:48:09.907Z,5.3
2019-06-25T03:49:10.037Z,5.2
2019-06-25T03:50:10.147Z,5.8
2019-06-25T03:51:10.251Z,4.8
2019-06-25T03:52:10.351Z,3.9
2019-06-25T03:53:10.433Z,4.5
2019-06-25T03:54:10.523Z,4.7
2019-06-25T03:55:10.631Z,4.3
2019-06-25T03:56:10.719Z,5.1
2019-06-25T03:57:10.829Z,3.6
2019-06-25T03:58:10.933Z,3.7
2019-06-25T03:59:11.036Z,4.2
2019-06-25T04:00:11.158Z,4.2
2019-06-25T04:01:11.134Z,6.7
2019-06-25T04:02:17.117Z,4.4
2019-06-25T04:03:12.288Z,5.6
2019-06-25T04:04:11.266Z,3.6
2019-06-25T04:05:11.283Z,4.9
2019-06-25T04:06:11.310Z,4.3
2019-06-25T04:07:11.344Z,4.6
2019-06-25T04:08:11.415Z,3.5
2019-06-25T04:09:11.433Z,5
2019-06-25T04:10:11.426Z,4.5
2019-06-25T04:11:11.439Z,5
2019-06-25T04:12:11.476Z,5.5
2019-06-25T04:13:11.523Z,4.8
2019-06-25T04:14:11.563Z,3.6
2019-06-25T04:15:11.608Z,3.8
2019-06-25T04:16:11.635Z,4.8
2019-06-25T04:17:11.704Z,4.2
2019-06-25T04:18:11.750Z,5.1
2019-06-25T04:19:11.790Z,4.1
2019-06-25T04:20:11.823Z,4
2019-06-25T04:21:11.862Z,4.9
2019-06-25T04:22:11.865Z,3.8
2019-06-25T04:23:11.926Z,3.6
2019-06-25T04:24:12.003Z,3.6
2019-06-25T04:25:12.020Z,5.1
2019-06-25T04:26:12.040Z,4.8
2019-06-25T04:27:12.105Z,6.8
2019-06-25T04:28:12.182Z,5.7
2019-06-25T04:29:12.180Z,6.3
2019-06-25T04:30:13.203Z,6.7
2019-06-25T04:31:12.242Z,6.3
2019-06-25T04:32:12.367Z,4.8
2019-06-25T04:33:12.451Z,4.3
2019-06-25T04:45:12.902Z,3.5
2019-06-25T05:17:14.124Z,8.3
2019-06-25T05:22:14.334Z,5.9
2019-06-25T05:23:14.347Z,6.7
2019-06-25T05:29:14.648Z,5
2019-06-25T05:30:15.636Z,4
2019-06-25T05:31:14.660Z,4.3
2019-06-25T05:32:14.682Z,5
2019-06-25T05:33:14.694Z,4.8
2019-06-25T05:34:14.765Z,6.6
2019-06-25T05:35:14.864Z,6.2
2019-06-25T05:36:14.888Z,5.3
2019-06-25T05:37:14.918Z,4.5
2019-06-25T05:38:14.957Z,6.3
2019-06-25T05:39:15.027Z,6.4
2019-06-25T05:40:15.174Z,6.6
2019-06-25T05:41:15.058Z,5.8
2019-06-25T05:42:15.063Z,4.4
2019-06-25T05:43:15.082Z,5.4
2019-06-25T05:44:15.175Z,4.6
2019-06-25T05:45:15.241Z,4.9
2019-06-25T05:46:15.277Z,4.6
2019-06-25T05:47:15.301Z,5.5
2019-06-25T05:48:15.344Z,5.6
2019-06-25T05:49:15.423Z,5.2
2019-06-25T05:50:15.435Z,3.8
2019-06-25T05:51:15.474Z,4.3
2019-06-25T05:52:15.569Z,6.3
2019-06-25T05:53:15.589Z,8
2019-06-25T05:54:15.620Z,7.3
2019-06-25T05:55:15.664Z,4.5
2019-06-25T05:56:15.725Z,4.7
2019-06-25T05:57:15.780Z,6.3
2019-06-25T05:58:15.826Z,5.9
2019-06-25T05:59:15.887Z,5.2
2019-06-25T06:00:15.935Z,5.1
2019-06-25T06:01:16.044Z,5
2019-06-25T06:02:16.060Z,5.7
2019-06-25T06:03:19.925Z,6.3
2019-06-25T06:04:17.274Z,6.1
2019-06-25T06:05:16.299Z,10.2
2019-06-25T06:06:16.334Z,6.5
2019-06-25T06:07:16.351Z,6.5
2019-06-25T06:08:16.395Z,4.8
2019-06-25T06:09:16.418Z,6.1
2019-06-25T06:10:16.527Z,5.4
2019-06-25T06:11:16.558Z,7.1
2019-06-25T06:12:16.619Z,6.1
2019-06-25T06:13:16.663Z,5.5
2019-06-25T06:14:16.751Z,5.8
2019-06-25T06:15:16.813Z,7.4
2019-06-25T06:16:16.909Z,6.7
2019-06-25T06:17:16.955Z,10.4
2019-06-25T06:18:16.970Z,7.5
2019-06-25T06:19:16.993Z,8.2
2019-06-25T06:20:17.014Z,6.8
2019-06-25T06:21:17.078Z,5
2019-06-25T06:22:17.141Z,7
2019-06-25T06:23:17.168Z,6.1
2019-06-25T06:24:17.179Z,4.1
2019-06-25T06:25:18.225Z,5
2019-06-25T06:26:18.616Z,6.4
2019-06-25T06:27:18.433Z,6.7
2019-06-25T06:28:17.457Z,6.3
2019-06-25T06:29:17.472Z,9.1
2019-06-25T06:30:17.493Z,6.9
2019-06-25T06:31:18.398Z,6.2
2019-06-25T06:32:18.682Z,8.2
2019-06-25T06:33:17.698Z,7.6
2019-06-25T06:34:17.749Z,3.8
2019-06-25T06:35:17.755Z,5.6
2019-06-25T06:36:17.779Z,6.6
2019-06-25T06:37:17.846Z,6.4
2019-06-25T06:38:17.893Z,8.4
2019-06-25T06:39:17.900Z,5.8
2019-06-25T06:40:17.944Z,8.1
2019-06-25T06:41:18.037Z,4.9
2019-06-25T06:42:18.090Z,3
2019-06-25T06:43:18.089Z,6.7
2019-06-25T06:44:18.110Z,3.4
2019-06-25T06:45:18.137Z,4.6
2019-06-25T06:46:18.143Z,6.5
2019-06-25T06:47:18.179Z,6.7
2019-06-25T06:48:18.228Z,3.9
2019-06-25T06:49:18.238Z,2.9
2019-06-25T06:50:18.265Z,6.2
2019-06-25T06:51:18.257Z,4.3
2019-06-25T06:52:18.327Z,5.1
2019-06-25T06:53:18.400Z,5.2
2019-06-25T06:54:18.454Z,4.3
2019-06-25T06:55:18.431Z,5.8
2019-06-25T06:56:18.469Z,5.7
2019-06-25T06:57:20.489Z,4.8
2019-06-25T06:58:19.567Z,5.2
2019-06-25T06:59:18.583Z,5.1
2019-06-25T07:00:18.731Z,5.3
2019-06-25T07:01:18.699Z,4.9
2019-06-25T07:02:18.725Z,5.6
2019-06-25T07:03:18.772Z,4.6
2019-06-25T07:04:18.776Z,5.5
2019-06-25T07:05:18.814Z,4.9
2019-06-25T07:06:18.864Z,3.9
2019-06-25T07:07:18.884Z,4
2019-06-25T07:08:18.951Z,4.2
2019-06-25T07:09:18.959Z,3.9
2019-06-25T07:10:19.002Z,4.7
2019-06-25T07:11:19.013Z,5.6
2019-06-25T07:12:19.049Z,8
2019-06-25T07:13:19.095Z,5.2
2019-06-25T07:14:19.130Z,4.8
2019-06-25T07:15:19.202Z,7.6
2019-06-25T07:16:19.234Z,4
2019-06-25T07:17:19.267Z,4.6
2019-06-25T07:18:19.360Z,4.7
2019-06-25T07:19:19.386Z,5.2
2019-06-25T07:20:32.375Z,4.3
2019-06-25T07:21:20.397Z,5.7
2019-06-25T07:22:19.404Z,4.5
2019-06-25T07:23:19.472Z,5.4
2019-06-25T07:24:19.528Z,2.8
2019-06-25T07:25:19.515Z,5.1
2019-06-25T07:26:19.541Z,4.7
2019-06-25T07:27:19.547Z,5.1
2019-06-25T07:28:19.629Z,4.8
2019-06-25T07:29:19.684Z,5.7
2019-06-25T07:30:19.711Z,4.5
2019-06-25T07:31:19.730Z,4.6
2019-06-25T07:32:19.750Z,5.6
2019-06-25T07:33:19.781Z,6.5
2019-06-25T07:34:19.872Z,6.1
2019-06-25T07:35:19.885Z,2.8
2019-06-25T07:36:19.908Z,5.7
2019-06-25T07:37:19.936Z,4
2019-06-25T07:38:19.969Z,4.2
2019-06-25T07:39:20.058Z,4.4
2019-06-25T07:40:20.068Z,7.7
2019-06-25T07:41:20.185Z,4.6
2019-06-25T07:42:20.179Z,4.8
2019-06-25T07:43:20.194Z,5.6
2019-06-25T07:44:20.306Z,3.2
2019-06-25T07:45:20.327Z,3
2019-06-25T07:46:20.339Z,4.6
2019-06-25T07:47:20.365Z,4.7
2019-06-25T07:48:20.389Z,5.1
2019-06-25T07:49:20.450Z,5.4
2019-06-25T07:50:20.464Z,6.2
2019-06-25T07:51:20.506Z,5
2019-06-25T07:52:20.549Z,5
2019-06-25T07:53:20.537Z,3
2019-06-25T07:54:20.629Z,3.8
2019-06-25T07:55:20.674Z,4.2
2019-06-25T07:56:35.396Z,3.7
2019-06-25T07:57:21.713Z,3.6
2019-06-25T07:58:22.810Z,4.4
2019-06-25T07:59:21.811Z,3.8
2019-06-25T08:00:20.817Z,5
2019-06-25T08:01:20.841Z,6.8
2019-06-25T08:02:20.890Z,3.1
2019-06-25T08:03:20.904Z,4.4
2019-06-25T08:04:25.186Z,5.1
2019-06-25T08:05:22.028Z,7.3
2019-06-25T08:06:21.085Z,4.9
2019-06-25T08:07:21.107Z,5.7
2019-06-25T08:08:21.153Z,5.4
2019-06-25T08:09:21.193Z,5.9
2019-06-25T08:10:21.274Z,4.5
2019-06-25T08:11:21.314Z,5.6
2019-06-25T08:12:21.332Z,3.7
2019-06-25T08:13:21.389Z,4.2
2019-06-25T08:14:21.426Z,3.8
2019-06-25T08:15:21.459Z,5.2
2019-06-25T08:16:21.496Z,4.5
2019-06-25T08:17:21.541Z,5.3
2019-06-25T08:18:21.551Z,4.4
2019-06-25T08:19:21.591Z,5
2019-06-25T08:20:21.657Z,4.7
2019-06-25T08:21:21.669Z,3.2
2019-06-25T08:22:21.713Z,3.5
2019-06-25T08:23:21.757Z,3
2019-06-25T08:24:21.758Z,3
2019-06-25T08:25:21.839Z,4.9
2019-06-25T08:26:21.864Z,4
2019-06-25T08:27:21.884Z,4.1
2019-06-25T08:28:21.923Z,3.9
2019-06-25T08:29:21.965Z,5.6
2019-06-25T08:30:22.044Z,3.8
2019-06-25T08:31:22.098Z,3.1
2019-06-25T08:32:25.394Z,4.3
2019-06-25T08:33:23.129Z,5.6
2019-06-25T08:34:22.155Z,5.4
2019-06-25T08:35:22.199Z,3.3
2019-06-25T08:36:22.217Z,4.7
2019-06-25T08:37:22.268Z,4.7
2019-06-25T08:38:22.286Z,4.6
2019-06-25T08:39:22.308Z,5.9
2019-06-25T08:40:22.311Z,7.4
2019-06-25T08:41:22.357Z,3.8
2019-06-25T08:42:22.372Z,5.6
2019-06-25T08:43:22.431Z,4.6
2019-06-25T08:44:22.417Z,3.9
2019-06-25T08:45:22.470Z,4.4
2019-06-25T08:46:22.530Z,3.3
2019-06-25T08:47:22.532Z,3.8
2019-06-25T08:48:22.562Z,3.6
2019-06-25T08:49:22.627Z,4.1
2019-06-25T08:50:22.639Z,3.7
2019-06-25T08:51:22.779Z,5
2019-06-25T08:52:22.734Z,4.8
2019-06-25T08:53:22.760Z,3.8
2019-06-25T08:54:22.830Z,3.8
2019-06-25T08:55:22.892Z,6.5
2019-06-25T08:56:22.929Z,3.3
2019-06-25T08:57:22.994Z,6.1
2019-06-25T08:58:23.021Z,6.8
2019-06-25T08:59:25.944Z,4.4
2019-06-25T09:00:24.059Z,6
2019-06-25T09:01:23.158Z,4.9
2019-06-25T09:02:23.203Z,3.5
2019-06-25T09:03:23.261Z,4.1
2019-06-25T09:04:23.305Z,4.6
2019-06-25T09:05:23.363Z,5.2
2019-06-25T09:06:23.485Z,4.6
2019-06-25T09:07:23.527Z,4.6
2019-06-25T09:08:23.531Z,3.8
2019-06-25T09:09:23.569Z,3
2019-06-25T09:11:23.721Z,3.6
2019-06-25T09:12:23.766Z,4.6
2019-06-25T09:13:23.792Z,4.5
2019-06-25T09:14:23.850Z,4.1
2019-06-25T09:15:23.878Z,3.8
2019-06-25T09:16:23.902Z,4.5
2019-06-25T09:17:23.974Z,4.4
2019-06-25T09:18:24.026Z,3.8
2019-06-25T09:19:24.054Z,2.8
2019-06-25T09:20:24.064Z,4.3
2019-06-25T09:21:24.165Z,4.2
2019-06-25T09:22:24.191Z,3.6
2019-06-25T09:23:24.229Z,4.2
2019-06-25T09:24:24.232Z,3.1
2019-06-25T09:25:24.296Z,3.4
2019-06-25T09:26:24.362Z,5.4
2019-06-25T09:27:25.400Z,3
2019-06-25T09:28:24.430Z,3.7
2019-06-25T09:29:24.473Z,3.3
2019-06-25T09:30:24.497Z,4.7
2019-06-25T09:31:24.537Z,4.2
2019-06-25T09:32:24.595Z,3.2
2019-06-25T09:33:24.623Z,4
2019-06-25T09:34:24.663Z,5.2
2019-06-25T09:35:24.659Z,2.6
2019-06-25T09:36:24.720Z,2.6
2019-06-25T09:37:24.796Z,2.6
2019-06-25T09:38:24.794Z,4.5
2019-06-25T09:39:24.817Z,3.1
2019-06-25T09:40:27.733Z,3.1
2019-06-25T09:41:28.115Z,2.9
2019-06-25T09:42:25.965Z,2.8
2019-06-25T09:43:24.983Z,2.7
2019-06-25T09:44:25.023Z,3.2
2019-06-25T09:45:25.059Z,2.8
2019-06-25T09:46:25.079Z,4.3
2019-06-25T09:47:25.137Z,3.5
2019-06-25T09:48:25.175Z,2.6
2019-06-25T09:49:25.268Z,3.7
2019-06-25T09:50:28.325Z,2.7
2019-06-25T09:59:25.752Z,2.6
2019-06-25T10:00:25.769Z,4.5
2019-06-25T10:01:28.352Z,3.8
2019-06-25T10:02:26.953Z,4.1
2019-06-25T10:03:25.988Z,4.9
2019-06-25T10:04:26.018Z,3.7
2019-06-25T10:05:31.312Z,3.6
2019-06-25T10:06:27.045Z,4.7
2019-06-25T10:07:26.097Z,2.6
2019-06-25T10:08:26.161Z,2.5
2019-06-25T10:09:26.190Z,3.5
2019-06-25T10:10:26.213Z,3.9
2019-06-25T10:11:26.240Z,2.7
2019-06-25T10:12:26.290Z,3.3
2019-06-25T10:13:26.363Z,4.4
2019-06-25T10:14:26.436Z,4.7
2019-06-25T10:15:26.451Z,3.3
2019-06-25T10:16:26.491Z,4.3
2019-06-25T10:17:26.483Z,2.5
2019-06-25T10:18:40.197Z,4.6
2019-06-25T10:19:27.558Z,4.9
2019-06-25T10:20:26.601Z,5
2019-06-25T10:21:26.609Z,2.9
2019-06-25T10:22:26.700Z,2.2
2019-06-25T10:23:26.741Z,2.8
2019-06-25T10:24:26.825Z,2.8
2019-06-25T10:25:26.858Z,4.1
2019-06-25T10:37:27.368Z,2.2
2019-06-25T10:38:27.441Z,2.4
2019-06-25T10:39:27.486Z,3
2019-06-25T10:40:27.528Z,2.9
2019-06-25T10:41:27.594Z,2.3
2019-06-25T10:42:27.623Z,2.6
2019-06-25T10:46:27.795Z,3.4
2019-06-25T10:47:27.854Z,4.7
2019-06-25T10:48:27.861Z,3.7
2019-06-25T10:49:27.923Z,3.8
2019-06-25T10:50:27.925Z,4.4
2019-06-25T10:51:27.961Z,4
2019-06-25T10:52:27.997Z,4.2
2019-06-25T11:01:28.507Z,6.4
2019-06-25T11:02:29.297Z,6.2
2019-06-25T11:03:28.640Z,5.9
2019-06-25T11:04:29.697Z,5.8
2019-06-25T11:05:29.675Z,5.6
2019-06-25T11:06:28.717Z,5.3
2019-06-25T11:07:28.750Z,5.8
2019-06-25T11:08:28.799Z,5.9
2019-06-25T11:09:28.921Z,6.1
2019-06-25T11:10:28.958Z,6.5
2019-06-25T11:11:29.002Z,6.4
2019-06-25T11:12:30.078Z,7.3
2019-06-25T11:13:29.298Z,7.4
2019-06-25T11:22:29.546Z,9.4
2019-06-25T11:23:32.369Z,9.4
2019-06-25T11:24:30.645Z,10
2019-06-25T11:25:29.709Z,9.8
2019-06-25T11:26:29.729Z,10.2
2019-06-25T11:27:29.833Z,10.2
2019-06-25T11:28:29.825Z,10.6
2019-06-25T11:29:29.923Z,11.2
2019-06-25T11:30:30.036Z,10.7
2019-06-25T11:31:30.218Z,10.6
2019-06-25T11:32:30.567Z,10.7
2019-06-25T11:34:30.697Z,10.9
2019-06-25T11:35:30.642Z,11.6
2019-06-25T11:36:30.713Z,12
2019-06-25T11:37:30.869Z,12.3
2019-06-25T11:38:31.019Z,12.5
2019-06-25T11:39:31.211Z,12.9
2019-06-25T11:40:31.193Z,13.3
2019-06-25T11:41:31.503Z,12.7
2019-06-25T11:42:31.500Z,13.6
2019-06-25T11:43:43.554Z,13.3
2019-06-25T11:44:32.753Z,13.7
2019-06-25T11:45:31.994Z,14.2
2019-06-25T11:46:31.981Z,13.8
2019-06-25T11:47:32.125Z,14.2
2019-06-25T11:48:32.266Z,13.6
2019-06-25T11:49:32.404Z,13.6
2019-06-25T11:50:32.572Z,14
2019-06-25T11:51:32.545Z,13.8
2019-06-25T11:52:32.680Z,13.7
2019-06-25T11:53:32.824Z,14
2019-06-25T11:54:32.966Z,13.6
2019-06-25T11:55:33.124Z,15.1
2019-06-25T11:56:33.446Z,15.1
2019-06-25T11:57:33.440Z,15.5
2019-06-25T11:58:33.538Z,15.1
2019-06-25T11:59:33.679Z,15.2
2019-06-25T12:00:33.833Z,15.1
2019-06-25T12:01:33.977Z,14.1
2019-06-25T12:02:34.135Z,14.5
2019-06-25T12:03:34.290Z,14.4
2019-06-25T12:04:34.259Z,13.9
2019-06-25T12:05:34.411Z,14.3
2019-06-25T12:06:52.614Z,13.5
2019-06-25T12:07:35.595Z,14.1
2019-06-25T12:08:34.719Z,13.8
2019-06-25T12:09:34.851Z,13.4
2019-06-25T12:10:35.126Z,13.2
2019-06-25T12:11:35.164Z,13
2019-06-25T12:12:35.128Z,12.8
2019-06-25T12:13:35.296Z,13.6
2019-06-25T12:14:35.287Z,13.2
2019-06-25T12:15:35.503Z,13.7
2019-06-25T12:16:35.477Z,13.6
2019-06-25T12:17:35.625Z,13.3
2019-06-25T12:18:35.763Z,13.8
2019-06-25T12:19:47.788Z,13.3
2019-06-25T12:20:37.050Z,13.2
2019-06-25T12:21:36.180Z,13.6
2019-06-25T12:22:36.342Z,13.8
2019-06-25T12:23:36.487Z,13.7
2019-06-25T12:24:36.589Z,14.1
2019-06-25T12:35:37.668Z,13.2
2019-06-25T12:36:37.864Z,14.2
2019-06-25T13:01:41.498Z,11.2
2019-06-25T13:02:41.325Z,11
2019-06-25T13:03:40.297Z,10.8
2019-06-25T13:04:40.422Z,10.9
2019-06-25T13:05:40.510Z,10.1
2019-06-25T13:06:40.601Z,10
2019-06-25T13:19:41.527Z,8.7
2019-06-25T13:20:41.573Z,8.2
2019-06-25T13:21:41.621Z,8.6
2019-06-25T13:22:41.854Z,8.1
2019-06-25T13:23:41.754Z,8.1
2019-06-25T13:24:41.782Z,8
2019-06-25T13:25:41.847Z,8.2
2019-06-25T13:26:41.905Z,8.6
2019-06-25T13:27:41.978Z,8.6
2019-06-25T13:28:42.006Z,8.4
2019-06-25T13:29:42.054Z,8
2019-06-25T13:30:42.062Z,8
2019-06-25T13:31:42.109Z,8.1
2019-06-25T13:32:42.185Z,7.8
2019-06-25T13:33:42.207Z,7.5
2019-06-25T13:34:42.257Z,7
2019-06-25T13:35:42.302Z,7.4
2019-06-25T13:36:42.323Z,6.9
2019-06-25T13:37:43.587Z,7
2019-06-25T13:38:43.448Z,6.2
2019-06-25T13:39:42.481Z,5.7
2019-06-25T13:40:42.503Z,5.4
2019-06-25T13:41:42.542Z,5.4
2019-06-25T13:42:42.623Z,5.5
2019-06-25T13:43:42.653Z,4.9
2019-06-25T13:44:42.689Z,5.2
2019-06-25T13:45:42.734Z,5.1
2019-06-25T13:46:42.776Z,5.7
2019-06-25T13:47:42.858Z,5.8
2019-06-25T13:48:42.882Z,7.2
2019-06-25T13:49:42.978Z,5.8
2019-06-25T13:50:43.019Z,5.8
2019-06-25T13:51:43.052Z,5.3
2019-06-25T13:52:43.102Z,5.4
2019-06-25T13:53:43.150Z,5.8
2019-06-25T13:54:43.197Z,5.7
2019-06-25T13:55:43.251Z,5.8
2019-06-25T13:56:43.310Z,5.9
2019-06-25T13:57:48.823Z,5.3
2019-06-25T13:58:44.416Z,4.9
2019-06-25T13:59:43.443Z,5.5
2019-06-25T14:00:43.473Z,5.7
2019-06-25T14:01:43.590Z,5.4
2019-06-25T14:02:43.671Z,5.8
2019-06-25T14:03:43.692Z,5.3
2019-06-25T14:04:43.776Z,5.2
2019-06-25T14:05:43.811Z,4.5
2019-06-25T14:06:43.877Z,4
2019-06-25T14:09:44.055Z,3.7
2019-06-25T14:10:44.066Z,3.7
2019-06-25T14:11:44.127Z,4.7
2019-06-25T14:12:44.180Z,3.6
2019-06-25T14:16:44.381Z,3.2
2019-06-25T14:17:44.414Z,3.6
2019-06-25T14:18:44.474Z,3.4
2019-06-25T14:19:44.505Z,3
2019-06-25T14:20:44.577Z,3.7
2019-06-25T14:21:44.632Z,3.6
2019-06-25T14:22:44.671Z,2.7
2019-06-25T14:23:44.785Z,3.2
2019-06-25T14:24:44.834Z,3.5
2019-06-25T14:25:44.878Z,3.6
2019-06-25T14:26:44.918Z,3.1
2019-06-25T14:27:45.019Z,3.1
2019-06-25T14:28:45.055Z,4.2
2019-06-25T14:29:45.103Z,3.5
2019-06-25T14:30:45.349Z,2.4
2019-06-25T14:31:45.234Z,4.8
2019-06-25T14:32:45.251Z,3
2019-06-25T14:33:45.362Z,2.9
2019-06-25T14:34:45.425Z,3.4
2019-06-25T14:35:47.391Z,4.3
2019-06-25T14:36:46.483Z,3.2
2019-06-25T14:37:45.488Z,3.7
2019-06-25T14:38:45.552Z,2.1
2019-06-25T14:39:45.625Z,2.6
2019-06-25T14:40:45.668Z,3.7
2019-06-25T14:41:45.726Z,4.4
2019-06-25T14:42:45.790Z,2.5
2019-06-25T14:43:45.794Z,2.9
2019-06-25T14:44:45.858Z,2.5
2019-06-25T14:45:45.877Z,3.3
2019-06-25T14:46:45.920Z,3.8
2019-06-25T14:47:45.965Z,2.9
2019-06-25T14:48:46.036Z,4.6
2019-06-25T14:49:46.073Z,3.4
2019-06-25T14:50:46.160Z,3.7
2019-06-25T14:51:46.251Z,3.2
2019-06-25T14:52:46.271Z,2.9
2019-06-25T14:53:46.304Z,2.8
2019-06-25T14:54:46.401Z,3
2019-06-25T14:58:46.585Z,2.8
2019-06-25T14:59:46.669Z,2.8
2019-06-25T15:00:46.733Z,3.2
2019-06-25T15:01:46.848Z,2.9
2019-06-25T15:02:46.859Z,2.7
2019-06-25T15:03:46.911Z,3
2019-06-25T15:04:46.992Z,3
2019-06-25T15:05:47.126Z,3.6
2019-06-25T15:06:47.087Z,2.5
2019-06-25T15:07:47.113Z,3
2019-06-25T15:08:47.234Z,3.8
2019-06-25T15:09:49.384Z,4.4
2019-06-25T15:10:48.267Z,2.8
2019-06-25T15:11:47.301Z,2.6
2019-06-25T15:12:47.529Z,3.6
2019-06-25T15:20:47.709Z,3.1
2019-06-25T15:40:48.723Z,3.6
2019-06-25T15:41:48.734Z,3.7
2019-06-25T15:44:48.859Z,4.5
2019-06-25T15:45:49.132Z,7
2019-06-25T15:46:49.010Z,4.1
2019-06-25T15:47:49.081Z,5.4
2019-06-25T15:48:49.267Z,4.5
2019-06-25T15:49:49.140Z,3.8
2019-06-25T18:06:56.605Z,7.1
2019-06-25T18:07:56.628Z,5.6
2019-06-25T18:08:56.692Z,3.9
2019-06-25T18:10:06.915Z,4.3
2019-06-25T18:10:57.788Z,5
2019-06-25T18:11:56.814Z,5.8
2019-06-25T18:12:56.824Z,6.1
2019-06-25T18:13:56.882Z,4.2
2019-06-25T18:14:56.955Z,5.4
2019-06-25T18:15:57.003Z,6.7
2019-06-25T18:16:57.036Z,6.2
2019-06-25T18:17:57.082Z,6.4
2019-06-25T18:18:57.144Z,7.4
2019-06-25T18:19:57.232Z,7
2019-06-25T18:20:57.337Z,5.2
2019-06-25T18:21:57.395Z,7.8
2019-06-25T18:22:57.470Z,4.4
2019-06-25T18:23:57.533Z,5.7
2019-06-25T18:24:57.662Z,5.6
2019-06-25T18:25:57.725Z,5.6
2019-06-25T18:26:57.787Z,5.1
2019-06-25T18:27:57.845Z,6.9
2019-06-25T18:28:57.849Z,9.5
2019-06-25T18:30:57.999Z,6.7
2019-06-25T18:32:07.280Z,7.2
2019-06-25T18:33:58.180Z,6.4
2019-06-25T18:34:58.156Z,4.2
2019-06-25T18:35:58.300Z,6.4
2019-06-25T18:36:58.355Z,6
2019-06-25T18:37:58.385Z,5.4
2019-06-25T18:38:58.437Z,4.6
2019-06-25T18:39:58.579Z,6.5
2019-06-25T18:40:58.652Z,6.5
2019-06-25T18:41:58.633Z,7.1
2019-06-25T18:42:58.623Z,6.8
2019-06-25T19:39:04.090Z,6.9
2019-06-25T19:40:04.144Z,9.6
2019-06-25T19:41:04.232Z,7.5
2019-06-25T19:59:05.757Z,6.4
2019-06-25T20:00:05.699Z,6.9
2019-06-25T20:01:05.800Z,8.3
2019-06-25T20:02:05.945Z,8.8
2019-06-25T20:03:06.065Z,5
2019-06-25T20:04:06.232Z,8
2019-06-25T20:10:06.889Z,7.3
2019-06-25T20:11:12.423Z,6.6
2019-06-25T20:12:07.853Z,9.4
2019-06-25T20:13:09.173Z,6.4
2019-06-25T20:15:07.174Z,7.3
2019-06-25T20:16:07.251Z,6.7
2019-06-25T20:17:07.363Z,6.8
2019-06-25T20:19:07.593Z,6.1
2019-06-25T20:20:07.699Z,8.9
2019-06-25T20:21:07.779Z,5.5
2019-06-25T20:22:07.876Z,7.8
2019-06-25T20:23:08.088Z,8.1
2019-06-25T20:30:08.640Z,8.9
2019-06-25T20:31:08.703Z,7.8
2019-06-25T20:32:08.826Z,8
2019-06-25T20:33:08.952Z,8.7
2019-06-25T20:36:09.226Z,8.5
2019-06-25T20:37:09.373Z,6.6
2019-06-25T20:38:09.404Z,13.2
2019-06-25T20:39:09.593Z,5.7
2019-06-25T20:40:09.528Z,6
2019-06-25T21:11:11.019Z,5.7
2019-06-25T21:12:11.038Z,5.9
2019-06-25T21:13:11.057Z,7.3
2019-06-25T21:14:11.126Z,6.9
2019-06-25T21:18:11.375Z,7.7
2019-06-25T21:19:11.457Z,9
2019-06-25T21:20:11.500Z,9.6
2019-06-25T21:21:11.520Z,10.2
2019-06-25T21:22:11.600Z,9.4
2019-06-25T21:23:11.631Z,6.9
2019-06-25T21:29:12.025Z,7.1
2019-06-25T21:30:12.038Z,8.9
2019-06-25T21:31:12.068Z,6.6
2019-06-25T21:32:12.138Z,8.8
2019-06-25T21:33:12.158Z,7.6
2019-06-25T21:34:12.258Z,6.3
2019-06-25T22:12:20.994Z,7.5
2019-06-25T22:13:15.608Z,7.6
2019-06-25T22:14:14.648Z,8.5
2019-06-25T22:15:14.688Z,9.5
2019-06-25T22:16:14.728Z,7.7
2019-06-25T22:17:14.841Z,9.3
2019-06-25T22:18:14.784Z,8.5
2019-06-25T22:22:19.517Z,7.7
2019-06-25T22:23:16.338Z,7.3
2019-06-25T22:24:15.351Z,6.8
2019-06-25T22:25:15.376Z,5.3
2019-06-25T22:26:15.411Z,8.6
2019-06-25T22:27:15.430Z,5.4
2019-06-25T22:28:15.440Z,7.3
2019-06-25T22:32:15.572Z,8.1
2019-06-25T22:33:15.563Z,8.3
2019-06-25T22:34:15.723Z,10.4
2019-06-25T22:35:15.712Z,8.5
2019-06-25T22:36:15.896Z,6.1
2019-06-25T22:37:15.855Z,5.7
2019-06-25T22:38:16.042Z,9.7